sensor_id;sensor_type;location;lat;lon;timestamp;P1;durP1;ratioP1;P2;durP2;ratioP2
76053;SDS011;64752;48.870;9.082;2023-03-29T00:02:15;2.87;;;2.10;;
76053;SDS011;64752;48.870;9.082;2023-03-29T00:04:40;5.03;;;1.92;;
76053;SDS011;64752;48.870;9.082;2023-03-29T00:07:06;2.63;;;2.00;;
76053;SDS011;64752;48.870;9.082;2023-03-29T00:09:32;4.35;;;2.17;;
76053;SDS011;64752;48.870;9.082;2023-03-29T00:11:58;3.92;;;1.95;;
76053;SDS011;64752;48.870;9.082;2023-03-29T00:14:24;3.20;;;2.25;;
76053;SDS011;64752;48.870;9.082;2023-03-29T00:16:50;3.38;;;2.05;;
76053;SDS011;64752;48.870;9.082;2023-03-29T00:19:16;4.15;;;2.20;;
76053;SDS011;64752;48.870;9.082;2023-03-29T00:21:42;2.97;;;2.00;;
76053;SDS011;64752;48.870;9.082;2023-03-29T00:24:07;3.75;;;2.08;;
76053;SDS011;64752;48.870;9.082;2023-03-29T00:26:33;3.25;;;2.22;;
76053;SDS011;64752;48.870;9.082;2023-03-29T00:28:58;3.50;;;2.38;;
76053;SDS011;64752;48.870;9.082;2023-03-29T00:31:23;3.53;;;2.10;;
76053;SDS011;64752;48.870;9.082;2023-03-29T00:33:50;3.15;;;2.03;;
76053;SDS011;64752;48.870;9.082;2023-03-29T00:36:15;4.45;;;2.00;;
76053;SDS011;64752;48.870;9.082;2023-03-29T00:38:40;6.45;;;2.05;;
76053;SDS011;64752;48.870;9.082;2023-03-29T00:41:06;3.65;;;1.98;;
76053;SDS011;64752;48.870;9.082;2023-03-29T00:46:16;3.78;;;2.05;;
76053;SDS011;64752;48.870;9.082;2023-03-29T00:48:42;3.65;;;1.90;;
76053;SDS011;64752;48.870;9.082;2023-03-29T00:51:08;4.40;;;2.20;;
76053;SDS011;64752;48.870;9.082;2023-03-29T00:53:38;3.38;;;1.95;;
76053;SDS011;64752;48.870;9.082;2023-03-29T00:56:09;4.40;;;2.40;;
76053;SDS011;64752;48.870;9.082;2023-03-29T01:01:09;4.85;;;2.22;;
76053;SDS011;64752;48.870;9.082;2023-03-29T01:03:42;6.28;;;2.22;;
76053;SDS011;64752;48.870;9.082;2023-03-29T01:06:14;5.68;;;2.65;;
76053;SDS011;64752;48.870;9.082;2023-03-29T01:08:47;4.90;;;2.38;;
76053;SDS011;64752;48.870;9.082;2023-03-29T01:11:18;6.07;;;2.30;;
76053;SDS011;64752;48.870;9.082;2023-03-29T01:16:23;5.07;;;2.40;;
76053;SDS011;64752;48.870;9.082;2023-03-29T01:18:50;3.92;;;2.08;;
76053;SDS011;64752;48.870;9.082;2023-03-29T01:24:12;3.88;;;2.10;;
76053;SDS011;64752;48.870;9.082;2023-03-29T01:29:22;4.25;;;2.17;;
76053;SDS011;64752;48.870;9.082;2023-03-29T01:31:55;5.43;;;2.15;;
76053;SDS011;64752;48.870;9.082;2023-03-29T01:34:26;3.53;;;2.30;;
76053;SDS011;64752;48.870;9.082;2023-03-29T01:39:37;3.38;;;2.38;;
76053;SDS011;64752;48.870;9.082;2023-03-29T01:47:07;5.25;;;2.25;;
76053;SDS011;64752;48.870;9.082;2023-03-29T01:49:39;4.60;;;2.50;;
76053;SDS011;64752;48.870;9.082;2023-03-29T01:52:17;5.07;;;2.20;;
76053;SDS011;64752;48.870;9.082;2023-03-29T01:54:51;3.22;;;2.05;;
76053;SDS011;64752;48.870;9.082;2023-03-29T01:57:22;3.45;;;2.20;;
76053;SDS011;64752;48.870;9.082;2023-03-29T01:59:50;5.75;;;2.63;;
76053;SDS011;64752;48.870;9.082;2023-03-29T02:02:18;4.93;;;2.25;;
76053;SDS011;64752;48.870;9.082;2023-03-29T02:04:46;4.10;;;2.10;;
76053;SDS011;64752;48.870;9.082;2023-03-29T02:07:17;4.00;;;2.20;;
76053;SDS011;64752;48.870;9.082;2023-03-29T02:09:48;4.95;;;2.22;;
76053;SDS011;64752;48.870;9.082;2023-03-29T02:12:18;4.03;;;2.15;;
76053;SDS011;64752;48.870;9.082;2023-03-29T02:14:44;4.57;;;2.20;;
76053;SDS011;64752;48.870;9.082;2023-03-29T02:17:22;4.13;;;2.38;;
76053;SDS011;64752;48.870;9.082;2023-03-29T02:19:54;4.30;;;2.28;;
76053;SDS011;64752;48.870;9.082;2023-03-29T02:22:29;4.60;;;2.30;;
76053;SDS011;64752;48.870;9.082;2023-03-29T02:25:01;5.10;;;2.70;;
76053;SDS011;64752;48.870;9.082;2023-03-29T02:27:30;6.20;;;2.72;;
76053;SDS011;64752;48.870;9.082;2023-03-29T02:29:55;4.25;;;2.50;;
76053;SDS011;64752;48.870;9.082;2023-03-29T02:32:23;4.55;;;2.25;;
76053;SDS011;64752;48.870;9.082;2023-03-29T02:35:00;4.72;;;2.15;;
76053;SDS011;64752;48.870;9.082;2023-03-29T02:37:37;5.22;;;2.30;;
76053;SDS011;64752;48.870;9.082;2023-03-29T02:40:07;5.63;;;2.40;;
76053;SDS011;64752;48.870;9.082;2023-03-29T02:42:37;3.33;;;2.30;;
76053;SDS011;64752;48.870;9.082;2023-03-29T02:45:04;4.30;;;2.22;;
76053;SDS011;64752;48.870;9.082;2023-03-29T02:47:34;3.33;;;2.33;;
76053;SDS011;64752;48.870;9.082;2023-03-29T02:50:05;6.63;;;2.65;;
76053;SDS011;64752;48.870;9.082;2023-03-29T02:52:33;3.72;;;2.30;;
76053;SDS011;64752;48.870;9.082;2023-03-29T02:55:01;3.60;;;2.10;;
76053;SDS011;64752;48.870;9.082;2023-03-29T02:57:30;4.47;;;2.40;;
76053;SDS011;64752;48.870;9.082;2023-03-29T02:59:56;4.07;;;2.33;;
76053;SDS011;64752;48.870;9.082;2023-03-29T03:02:23;9.18;;;3.20;;
76053;SDS011;64752;48.870;9.082;2023-03-29T03:04:52;5.03;;;2.47;;
76053;SDS011;64752;48.870;9.082;2023-03-29T03:07:17;3.33;;;2.15;;
76053;SDS011;64752;48.870;9.082;2023-03-29T03:09:44;4.93;;;2.50;;
76053;SDS011;64752;48.870;9.082;2023-03-29T03:12:11;3.75;;;2.35;;
76053;SDS011;64752;48.870;9.082;2023-03-29T03:14:36;3.88;;;2.47;;
76053;SDS011;64752;48.870;9.082;2023-03-29T03:17:02;4.60;;;2.38;;
76053;SDS011;64752;48.870;9.082;2023-03-29T03:19:27;4.03;;;2.28;;
76053;SDS011;64752;48.870;9.082;2023-03-29T03:21:53;6.78;;;2.45;;
76053;SDS011;64752;48.870;9.082;2023-03-29T03:24:18;3.47;;;2.17;;
76053;SDS011;64752;48.870;9.082;2023-03-29T03:26:44;4.35;;;2.67;;
76053;SDS011;64752;48.870;9.082;2023-03-29T03:29:10;5.95;;;2.50;;
76053;SDS011;64752;48.870;9.082;2023-03-29T03:31:37;6.68;;;3.28;;
76053;SDS011;64752;48.870;9.082;2023-03-29T03:34:05;3.90;;;2.80;;
76053;SDS011;64752;48.870;9.082;2023-03-29T03:36:32;6.97;;;2.90;;
76053;SDS011;64752;48.870;9.082;2023-03-29T03:38:58;6.13;;;2.67;;
76053;SDS011;64752;48.870;9.082;2023-03-29T03:41:24;4.68;;;2.70;;
76053;SDS011;64752;48.870;9.082;2023-03-29T03:43:50;5.23;;;2.83;;
76053;SDS011;64752;48.870;9.082;2023-03-29T03:46:15;4.85;;;2.50;;
76053;SDS011;64752;48.870;9.082;2023-03-29T03:48:41;4.80;;;2.22;;
76053;SDS011;64752;48.870;9.082;2023-03-29T03:51:06;4.00;;;1.92;;
76053;SDS011;64752;48.870;9.082;2023-03-29T03:53:32;3.50;;;2.20;;
76053;SDS011;64752;48.870;9.082;2023-03-29T03:55:58;2.95;;;2.10;;
76053;SDS011;64752;48.870;9.082;2023-03-29T03:58:26;5.30;;;2.40;;
76053;SDS011;64752;48.870;9.082;2023-03-29T04:00:51;4.05;;;2.45;;
76053;SDS011;64752;48.870;9.082;2023-03-29T04:03:17;3.58;;;2.10;;
76053;SDS011;64752;48.870;9.082;2023-03-29T04:05:43;3.35;;;2.20;;
76053;SDS011;64752;48.870;9.082;2023-03-29T04:10:36;4.38;;;2.10;;
76053;SDS011;64752;48.870;9.082;2023-03-29T04:13:02;4.65;;;1.95;;
76053;SDS011;64752;48.870;9.082;2023-03-29T04:15:32;3.95;;;2.00;;
76053;SDS011;64752;48.870;9.082;2023-03-29T04:17:59;3.83;;;2.42;;
76053;SDS011;64752;48.870;9.082;2023-03-29T04:20:25;2.58;;;1.80;;
76053;SDS011;64752;48.870;9.082;2023-03-29T04:22:51;3.95;;;2.00;;
76053;SDS011;64752;48.870;9.082;2023-03-29T04:25:17;4.47;;;1.90;;
76053;SDS011;64752;48.870;9.082;2023-03-29T04:27:44;3.58;;;2.22;;
76053;SDS011;64752;48.870;9.082;2023-03-29T04:30:10;4.10;;;2.30;;
76053;SDS011;64752;48.870;9.082;2023-03-29T04:32:36;4.60;;;1.73;;
76053;SDS011;64752;48.870;9.082;2023-03-29T04:35:02;5.47;;;2.05;;
76053;SDS011;64752;48.870;9.082;2023-03-29T04:37:29;3.22;;;2.22;;
76053;SDS011;64752;48.870;9.082;2023-03-29T04:39:55;3.97;;;2.45;;
76053;SDS011;64752;48.870;9.082;2023-03-29T04:42:21;4.68;;;2.42;;
76053;SDS011;64752;48.870;9.082;2023-03-29T04:44:46;4.10;;;2.10;;
76053;SDS011;64752;48.870;9.082;2023-03-29T04:47:12;8.40;;;5.35;;
76053;SDS011;64752;48.870;9.082;2023-03-29T04:49:38;6.82;;;3.63;;
76053;SDS011;64752;48.870;9.082;2023-03-29T04:52:05;5.33;;;3.17;;
76053;SDS011;64752;48.870;9.082;2023-03-29T04:54:33;5.13;;;2.55;;
76053;SDS011;64752;48.870;9.082;2023-03-29T04:57:01;4.53;;;2.28;;
76053;SDS011;64752;48.870;9.082;2023-03-29T04:59:27;3.63;;;2.05;;
76053;SDS011;64752;48.870;9.082;2023-03-29T05:01:52;3.35;;;2.00;;
76053;SDS011;64752;48.870;9.082;2023-03-29T05:04:18;3.50;;;2.00;;
76053;SDS011;64752;48.870;9.082;2023-03-29T05:06:44;4.40;;;1.93;;
76053;SDS011;64752;48.870;9.082;2023-03-29T05:09:10;4.22;;;2.20;;
76053;SDS011;64752;48.870;9.082;2023-03-29T05:11:35;3.55;;;2.22;;
76053;SDS011;64752;48.870;9.082;2023-03-29T05:14:01;4.38;;;2.05;;
76053;SDS011;64752;48.870;9.082;2023-03-29T05:16:30;4.05;;;1.85;;
76053;SDS011;64752;48.870;9.082;2023-03-29T05:18:56;5.18;;;2.10;;
76053;SDS011;64752;48.870;9.082;2023-03-29T05:21:22;4.03;;;1.88;;
76053;SDS011;64752;48.870;9.082;2023-03-29T05:23:50;6.22;;;3.05;;
76053;SDS011;64752;48.870;9.082;2023-03-29T05:26:16;4.45;;;2.22;;
76053;SDS011;64752;48.870;9.082;2023-03-29T05:28:42;4.18;;;2.20;;
76053;SDS011;64752;48.870;9.082;2023-03-29T05:31:08;6.45;;;1.88;;
76053;SDS011;64752;48.870;9.082;2023-03-29T05:33:34;2.17;;;1.60;;
76053;SDS011;64752;48.870;9.082;2023-03-29T05:36:00;3.30;;;2.00;;
76053;SDS011;64752;48.870;9.082;2023-03-29T05:38:31;6.15;;;2.15;;
76053;SDS011;64752;48.870;9.082;2023-03-29T05:40:58;4.50;;;2.08;;
76053;SDS011;64752;48.870;9.082;2023-03-29T05:43:24;4.47;;;2.10;;
76053;SDS011;64752;48.870;9.082;2023-03-29T05:45:53;7.03;;;2.03;;
76053;SDS011;64752;48.870;9.082;2023-03-29T05:48:20;3.13;;;1.80;;
76053;SDS011;64752;48.870;9.082;2023-03-29T05:50:48;4.80;;;2.65;;
76053;SDS011;64752;48.870;9.082;2023-03-29T05:53:15;5.18;;;2.70;;
76053;SDS011;64752;48.870;9.082;2023-03-29T05:55:41;7.25;;;3.00;;
76053;SDS011;64752;48.870;9.082;2023-03-29T05:58:06;5.82;;;2.65;;
76053;SDS011;64752;48.870;9.082;2023-03-29T06:00:32;6.97;;;3.28;;
76053;SDS011;64752;48.870;9.082;2023-03-29T06:03:01;8.13;;;3.95;;
76053;SDS011;64752;48.870;9.082;2023-03-29T06:05:27;10.23;;;5.00;;
76053;SDS011;64752;48.870;9.082;2023-03-29T06:07:52;9.52;;;4.90;;
76053;SDS011;64752;48.870;9.082;2023-03-29T06:10:18;8.95;;;4.15;;
76053;SDS011;64752;48.870;9.082;2023-03-29T06:12:44;5.85;;;3.08;;
76053;SDS011;64752;48.870;9.082;2023-03-29T06:15:11;8.20;;;3.10;;
76053;SDS011;64752;48.870;9.082;2023-03-29T06:17:37;7.10;;;3.45;;
76053;SDS011;64752;48.870;9.082;2023-03-29T06:20:04;6.10;;;2.95;;
76053;SDS011;64752;48.870;9.082;2023-03-29T06:22:35;4.25;;;2.42;;
76053;SDS011;64752;48.870;9.082;2023-03-29T06:25:05;6.05;;;2.60;;
76053;SDS011;64752;48.870;9.082;2023-03-29T06:27:38;7.97;;;2.80;;
76053;SDS011;64752;48.870;9.082;2023-03-29T06:30:03;5.72;;;2.25;;
76053;SDS011;64752;48.870;9.082;2023-03-29T06:32:29;6.35;;;2.03;;
76053;SDS011;64752;48.870;9.082;2023-03-29T06:34:55;2.63;;;1.90;;
76053;SDS011;64752;48.870;9.082;2023-03-29T06:37:20;4.38;;;2.30;;
76053;SDS011;64752;48.870;9.082;2023-03-29T06:39:47;3.75;;;2.15;;
76053;SDS011;64752;48.870;9.082;2023-03-29T06:42:20;5.20;;;1.98;;
76053;SDS011;64752;48.870;9.082;2023-03-29T06:44:46;7.20;;;2.72;;
76053;SDS011;64752;48.870;9.082;2023-03-29T06:47:12;5.82;;;2.75;;
76053;SDS011;64752;48.870;9.082;2023-03-29T06:49:38;6.35;;;2.00;;
76053;SDS011;64752;48.870;9.082;2023-03-29T06:52:04;4.95;;;1.92;;
76053;SDS011;64752;48.870;9.082;2023-03-29T06:54:30;4.97;;;2.22;;
76053;SDS011;64752;48.870;9.082;2023-03-29T06:56:55;4.72;;;2.00;;
76053;SDS011;64752;48.870;9.082;2023-03-29T06:59:21;5.50;;;1.80;;
76053;SDS011;64752;48.870;9.082;2023-03-29T07:01:47;5.50;;;1.80;;
76053;SDS011;64752;48.870;9.082;2023-03-29T07:04:12;4.22;;;1.95;;
76053;SDS011;64752;48.870;9.082;2023-03-29T07:06:38;3.97;;;1.45;;
76053;SDS011;64752;48.870;9.082;2023-03-29T07:09:04;8.93;;;2.03;;
76053;SDS011;64752;48.870;9.082;2023-03-29T07:11:31;3.90;;;1.90;;
76053;SDS011;64752;48.870;9.082;2023-03-29T07:14:00;3.95;;;1.90;;
76053;SDS011;64752;48.870;9.082;2023-03-29T07:16:27;7.32;;;2.28;;
76053;SDS011;64752;48.870;9.082;2023-03-29T07:18:53;5.85;;;2.10;;
76053;SDS011;64752;48.870;9.082;2023-03-29T07:21:18;5.88;;;2.33;;
76053;SDS011;64752;48.870;9.082;2023-03-29T07:23:44;7.00;;;2.30;;
76053;SDS011;64752;48.870;9.082;2023-03-29T07:26:10;4.60;;;2.00;;
76053;SDS011;64752;48.870;9.082;2023-03-29T07:28:36;6.20;;;1.92;;
76053;SDS011;64752;48.870;9.082;2023-03-29T07:31:03;6.05;;;2.10;;
76053;SDS011;64752;48.870;9.082;2023-03-29T07:33:31;8.13;;;2.30;;
76053;SDS011;64752;48.870;9.082;2023-03-29T07:35:56;7.25;;;2.30;;
76053;SDS011;64752;48.870;9.082;2023-03-29T07:38:23;6.15;;;2.05;;
76053;SDS011;64752;48.870;9.082;2023-03-29T07:40:49;6.00;;;2.07;;
76053;SDS011;64752;48.870;9.082;2023-03-29T07:43:14;6.13;;;2.00;;
76053;SDS011;64752;48.870;9.082;2023-03-29T07:45:40;5.15;;;2.33;;
76053;SDS011;64752;48.870;9.082;2023-03-29T07:48:06;5.22;;;1.90;;
76053;SDS011;64752;48.870;9.082;2023-03-29T07:50:32;4.40;;;2.03;;
76053;SDS011;64752;48.870;9.082;2023-03-29T07:52:58;7.03;;;2.05;;
76053;SDS011;64752;48.870;9.082;2023-03-29T07:55:24;5.40;;;1.92;;
76053;SDS011;64752;48.870;9.082;2023-03-29T07:57:50;9.82;;;2.65;;
76053;SDS011;64752;48.870;9.082;2023-03-29T08:00:16;4.05;;;2.08;;
76053;SDS011;64752;48.870;9.082;2023-03-29T08:02:44;4.57;;;2.15;;
76053;SDS011;64752;48.870;9.082;2023-03-29T08:05:11;7.13;;;2.13;;
76053;SDS011;64752;48.870;9.082;2023-03-29T08:07:38;6.03;;;1.77;;
76053;SDS011;64752;48.870;9.082;2023-03-29T08:10:09;2.85;;;1.60;;
76053;SDS011;64752;48.870;9.082;2023-03-29T08:12:39;7.20;;;2.22;;
76053;SDS011;64752;48.870;9.082;2023-03-29T08:15:06;3.63;;;1.85;;
76053;SDS011;64752;48.870;9.082;2023-03-29T08:17:32;4.07;;;1.85;;
76053;SDS011;64752;48.870;9.082;2023-03-29T08:20:00;4.45;;;1.70;;
76053;SDS011;64752;48.870;9.082;2023-03-29T08:22:26;7.10;;;2.30;;
76053;SDS011;64752;48.870;9.082;2023-03-29T08:24:52;7.38;;;1.90;;
76053;SDS011;64752;48.870;9.082;2023-03-29T08:27:17;4.00;;;1.80;;
76053;SDS011;64752;48.870;9.082;2023-03-29T08:29:43;5.13;;;1.70;;
76053;SDS011;64752;48.870;9.082;2023-03-29T08:32:08;5.87;;;1.80;;
76053;SDS011;64752;48.870;9.082;2023-03-29T08:34:34;6.28;;;1.77;;
76053;SDS011;64752;48.870;9.082;2023-03-29T08:37:00;4.63;;;1.77;;
76053;SDS011;64752;48.870;9.082;2023-03-29T08:39:28;9.55;;;2.17;;
76053;SDS011;64752;48.870;9.082;2023-03-29T08:47:19;5.07;;;2.03;;
76053;SDS011;64752;48.870;9.082;2023-03-29T08:49:47;5.57;;;2.38;;
76053;SDS011;64752;48.870;9.082;2023-03-29T08:52:30;8.65;;;2.30;;
76053;SDS011;64752;48.870;9.082;2023-03-29T08:55:00;4.05;;;1.80;;
76053;SDS011;64752;48.870;9.082;2023-03-29T08:57:29;7.03;;;1.88;;
76053;SDS011;64752;48.870;9.082;2023-03-29T08:59:57;7.30;;;1.98;;
76053;SDS011;64752;48.870;9.082;2023-03-29T09:02:25;7.65;;;1.88;;
76053;SDS011;64752;48.870;9.082;2023-03-29T09:04:59;3.38;;;2.00;;
76053;SDS011;64752;48.870;9.082;2023-03-29T09:07:32;3.97;;;2.10;;
76053;SDS011;64752;48.870;9.082;2023-03-29T09:09:58;2.97;;;1.48;;
76053;SDS011;64752;48.870;9.082;2023-03-29T09:15:02;4.70;;;2.00;;
76053;SDS011;64752;48.870;9.082;2023-03-29T09:20:10;5.68;;;1.92;;
76053;SDS011;64752;48.870;9.082;2023-03-29T09:25:40;4.20;;;1.60;;
76053;SDS011;64752;48.870;9.082;2023-03-29T09:28:26;7.20;;;2.08;;
76053;SDS011;64752;48.870;9.082;2023-03-29T09:33:39;4.45;;;2.10;;
76053;SDS011;64752;48.870;9.082;2023-03-29T09:39:07;4.82;;;2.03;;
76053;SDS011;64752;48.870;9.082;2023-03-29T09:41:37;4.55;;;1.73;;
76053;SDS011;64752;48.870;9.082;2023-03-29T09:44:21;4.75;;;1.48;;
76053;SDS011;64752;48.870;9.082;2023-03-29T09:46:54;5.60;;;1.67;;
76053;SDS011;64752;48.870;9.082;2023-03-29T09:49:24;4.53;;;1.30;;
76053;SDS011;64752;48.870;9.082;2023-03-29T09:51:54;3.58;;;1.60;;
76053;SDS011;64752;48.870;9.082;2023-03-29T09:54:24;3.95;;;1.77;;
76053;SDS011;64752;48.870;9.082;2023-03-29T09:56:50;5.03;;;1.53;;
76053;SDS011;64752;48.870;9.082;2023-03-29T09:59:16;3.15;;;1.63;;
76053;SDS011;64752;48.870;9.082;2023-03-29T10:01:42;3.57;;;1.70;;
76053;SDS011;64752;48.870;9.082;2023-03-29T10:04:11;3.78;;;1.83;;
76053;SDS011;64752;48.870;9.082;2023-03-29T10:06:44;4.43;;;1.83;;
76053;SDS011;64752;48.870;9.082;2023-03-29T10:09:15;3.42;;;1.50;;
76053;SDS011;64752;48.870;9.082;2023-03-29T10:11:53;5.03;;;1.60;;
76053;SDS011;64752;48.870;9.082;2023-03-29T10:17:18;3.55;;;1.45;;
76053;SDS011;64752;48.870;9.082;2023-03-29T10:19:52;3.83;;;1.80;;
76053;SDS011;64752;48.870;9.082;2023-03-29T10:22:22;4.13;;;1.90;;
76053;SDS011;64752;48.870;9.082;2023-03-29T10:24:53;3.80;;;1.35;;
76053;SDS011;64752;48.870;9.082;2023-03-29T10:27:22;3.35;;;1.65;;
76053;SDS011;64752;48.870;9.082;2023-03-29T10:29:50;5.28;;;1.45;;
76053;SDS011;64752;48.870;9.082;2023-03-29T10:32:32;5.97;;;1.80;;
76053;SDS011;64752;48.870;9.082;2023-03-29T10:37:47;2.03;;;1.20;;
76053;SDS011;64752;48.870;9.082;2023-03-29T10:40:19;1.98;;;1.10;;
76053;SDS011;64752;48.870;9.082;2023-03-29T10:42:50;2.90;;;1.50;;
76053;SDS011;64752;48.870;9.082;2023-03-29T10:45:24;6.43;;;1.67;;
76053;SDS011;64752;48.870;9.082;2023-03-29T10:47:56;15.98;;;5.53;;
76053;SDS011;64752;48.870;9.082;2023-03-29T10:50:23;2.85;;;1.42;;
76053;SDS011;64752;48.870;9.082;2023-03-29T10:55:15;2.60;;;1.30;;
76053;SDS011;64752;48.870;9.082;2023-03-29T11:05:33;4.43;;;1.45;;
76053;SDS011;64752;48.870;9.082;2023-03-29T11:10:55;4.05;;;1.35;;
76053;SDS011;64752;48.870;9.082;2023-03-29T11:27:07;4.43;;;1.65;;
76053;SDS011;64752;48.870;9.082;2023-03-29T11:29:51;3.85;;;1.25;;
76053;SDS011;64752;48.870;9.082;2023-03-29T11:42:27;3.70;;;1.40;;
76053;SDS011;64752;48.870;9.082;2023-03-29T11:44:56;4.88;;;1.25;;
76053;SDS011;64752;48.870;9.082;2023-03-29T11:47:26;3.17;;;1.63;;
76053;SDS011;64752;48.870;9.082;2023-03-29T11:50:20;3.72;;;1.55;;
76053;SDS011;64752;48.870;9.082;2023-03-29T11:52:51;2.83;;;1.40;;
76053;SDS011;64752;48.870;9.082;2023-03-29T11:55:26;3.10;;;1.38;;
76053;SDS011;64752;48.870;9.082;2023-03-29T11:57:55;3.67;;;1.42;;
76053;SDS011;64752;48.870;9.082;2023-03-29T12:13:46;3.90;;;1.65;;
76053;SDS011;64752;48.870;9.082;2023-03-29T12:19:16;3.30;;;1.50;;
76053;SDS011;64752;48.870;9.082;2023-03-29T12:21:45;4.57;;;1.70;;
76053;SDS011;64752;48.870;9.082;2023-03-29T12:24:12;2.97;;;1.67;;
76053;SDS011;64752;48.870;9.082;2023-03-29T12:29:21;5.22;;;1.67;;
76053;SDS011;64752;48.870;9.082;2023-03-29T12:39:34;5.50;;;1.60;;
76053;SDS011;64752;48.870;9.082;2023-03-29T12:42:12;6.13;;;2.03;;
76053;SDS011;64752;48.870;9.082;2023-03-29T12:44:39;4.65;;;1.65;;
76053;SDS011;64752;48.870;9.082;2023-03-29T12:47:12;7.32;;;1.55;;
76053;SDS011;64752;48.870;9.082;2023-03-29T12:49:45;2.83;;;1.60;;
76053;SDS011;64752;48.870;9.082;2023-03-29T12:52:21;6.03;;;1.65;;
76053;SDS011;64752;48.870;9.082;2023-03-29T12:54:52;4.18;;;1.80;;
76053;SDS011;64752;48.870;9.082;2023-03-29T12:57:41;4.03;;;1.60;;
76053;SDS011;64752;48.870;9.082;2023-03-29T13:00:25;5.70;;;1.90;;
76053;SDS011;64752;48.870;9.082;2023-03-29T13:03:03;3.97;;;1.15;;
76053;SDS011;64752;48.870;9.082;2023-03-29T13:05:43;1.95;;;0.82;;
76053;SDS011;64752;48.870;9.082;2023-03-29T13:08:20;3.25;;;1.20;;
76053;SDS011;64752;48.870;9.082;2023-03-29T13:10:51;5.60;;;1.10;;
76053;SDS011;64752;48.870;9.082;2023-03-29T13:13:35;4.47;;;1.50;;
76053;SDS011;64752;48.870;9.082;2023-03-29T13:16:15;2.45;;;1.27;;
76053;SDS011;64752;48.870;9.082;2023-03-29T13:27:42;3.97;;;1.42;;
76053;SDS011;64752;48.870;9.082;2023-03-29T13:33:53;3.05;;;0.98;;
76053;SDS011;64752;48.870;9.082;2023-03-29T13:39:03;5.82;;;1.20;;
76053;SDS011;64752;48.870;9.082;2023-03-29T13:44:02;1.48;;;0.82;;
76053;SDS011;64752;48.870;9.082;2023-03-29T13:49:11;3.85;;;1.40;;
76053;SDS011;64752;48.870;9.082;2023-03-29T13:51:42;5.70;;;1.15;;
76053;SDS011;64752;48.870;9.082;2023-03-29T13:54:27;1.95;;;1.13;;
76053;SDS011;64752;48.870;9.082;2023-03-29T13:59:37;3.83;;;1.20;;
76053;SDS011;64752;48.870;9.082;2023-03-29T14:02:04;3.28;;;1.15;;
76053;SDS011;64752;48.870;9.082;2023-03-29T14:04:34;2.13;;;1.13;;
76053;SDS011;64752;48.870;9.082;2023-03-29T14:07:05;3.55;;;1.23;;
76053;SDS011;64752;48.870;9.082;2023-03-29T14:09:33;3.40;;;1.10;;
76053;SDS011;64752;48.870;9.082;2023-03-29T14:12:03;5.60;;;1.23;;
76053;SDS011;64752;48.870;9.082;2023-03-29T14:14:31;2.92;;;1.13;;
76053;SDS011;64752;48.870;9.082;2023-03-29T14:16:58;2.95;;;1.35;;
76053;SDS011;64752;48.870;9.082;2023-03-29T14:19:31;1.85;;;1.08;;
76053;SDS011;64752;48.870;9.082;2023-03-29T14:22:00;3.30;;;1.20;;
76053;SDS011;64752;48.870;9.082;2023-03-29T14:27:00;3.78;;;1.23;;
76053;SDS011;64752;48.870;9.082;2023-03-29T14:29:31;1.90;;;0.90;;
76053;SDS011;64752;48.870;9.082;2023-03-29T14:32:06;2.78;;;0.98;;
76053;SDS011;64752;48.870;9.082;2023-03-29T14:34:36;5.28;;;1.20;;
76053;SDS011;64752;48.870;9.082;2023-03-29T14:37:03;2.40;;;1.10;;
76053;SDS011;64752;48.870;9.082;2023-03-29T14:39:30;2.60;;;1.00;;
76053;SDS011;64752;48.870;9.082;2023-03-29T14:41:57;5.50;;;1.40;;
76053;SDS011;64752;48.870;9.082;2023-03-29T14:44:26;4.20;;;1.37;;
76053;SDS011;64752;48.870;9.082;2023-03-29T14:46:57;4.80;;;1.50;;
76053;SDS011;64752;48.870;9.082;2023-03-29T14:49:24;2.70;;;1.35;;
76053;SDS011;64752;48.870;9.082;2023-03-29T14:51:50;3.70;;;1.40;;
76053;SDS011;64752;48.870;9.082;2023-03-29T14:54:20;4.15;;;1.20;;
76053;SDS011;64752;48.870;9.082;2023-03-29T14:56:49;5.22;;;1.20;;
76053;SDS011;64752;48.870;9.082;2023-03-29T15:02:02;2.13;;;0.98;;
76053;SDS011;64752;48.870;9.082;2023-03-29T15:04:31;5.97;;;1.50;;
76053;SDS011;64752;48.870;9.082;2023-03-29T15:06:58;6.10;;;1.70;;
76053;SDS011;64752;48.870;9.082;2023-03-29T15:09:26;5.90;;;1.40;;
76053;SDS011;64752;48.870;9.082;2023-03-29T15:11:56;3.45;;;1.20;;
76053;SDS011;64752;48.870;9.082;2023-03-29T15:14:23;5.10;;;1.05;;
76053;SDS011;64752;48.870;9.082;2023-03-29T15:16:52;2.65;;;1.20;;
76053;SDS011;64752;48.870;9.082;2023-03-29T15:19:23;2.28;;;1.20;;
76053;SDS011;64752;48.870;9.082;2023-03-29T15:21:50;2.60;;;1.25;;
76053;SDS011;64752;48.870;9.082;2023-03-29T15:24:29;3.50;;;1.10;;
76053;SDS011;64752;48.870;9.082;2023-03-29T15:27:00;2.35;;;1.25;;
76053;SDS011;64752;48.870;9.082;2023-03-29T15:29:37;5.07;;;1.50;;
76053;SDS011;64752;48.870;9.082;2023-03-29T15:32:06;3.92;;;1.40;;
76053;SDS011;64752;48.870;9.082;2023-03-29T15:36:58;3.05;;;1.30;;
76053;SDS011;64752;48.870;9.082;2023-03-29T15:41:54;3.35;;;1.00;;
76053;SDS011;64752;48.870;9.082;2023-03-29T15:44:22;3.10;;;1.00;;
76053;SDS011;64752;48.870;9.082;2023-03-29T15:46:51;3.47;;;1.27;;
76053;SDS011;64752;48.870;9.082;2023-03-29T15:49:19;6.30;;;1.50;;
76053;SDS011;64752;48.870;9.082;2023-03-29T15:51:44;3.20;;;1.50;;
76053;SDS011;64752;48.870;9.082;2023-03-29T15:54:10;4.30;;;1.37;;
76053;SDS011;64752;48.870;9.082;2023-03-29T15:56:36;4.10;;;1.50;;
76053;SDS011;64752;48.870;9.082;2023-03-29T15:59:15;3.60;;;1.13;;
76053;SDS011;64752;48.870;9.082;2023-03-29T16:04:12;4.57;;;1.30;;
76053;SDS011;64752;48.870;9.082;2023-03-29T16:06:39;5.13;;;1.60;;
76053;SDS011;64752;48.870;9.082;2023-03-29T16:09:05;3.20;;;1.27;;
76053;SDS011;64752;48.870;9.082;2023-03-29T16:13:58;4.53;;;1.70;;
76053;SDS011;64752;48.870;9.082;2023-03-29T16:16:23;4.73;;;1.77;;
76053;SDS011;64752;48.870;9.082;2023-03-29T16:18:49;3.67;;;1.17;;
76053;SDS011;64752;48.870;9.082;2023-03-29T16:21:15;3.77;;;1.20;;
76053;SDS011;64752;48.870;9.082;2023-03-29T16:23:43;3.45;;;1.50;;
76053;SDS011;64752;48.870;9.082;2023-03-29T16:26:10;5.88;;;1.52;;
76053;SDS011;64752;48.870;9.082;2023-03-29T16:28:40;4.88;;;1.67;;
76053;SDS011;64752;48.870;9.082;2023-03-29T16:31:07;4.57;;;1.50;;
76053;SDS011;64752;48.870;9.082;2023-03-29T16:33:35;3.38;;;1.40;;
76053;SDS011;64752;48.870;9.082;2023-03-29T16:36:00;4.43;;;1.50;;
76053;SDS011;64752;48.870;9.082;2023-03-29T16:38:25;3.03;;;1.50;;
76053;SDS011;64752;48.870;9.082;2023-03-29T16:40:53;3.15;;;1.65;;
76053;SDS011;64752;48.870;9.082;2023-03-29T16:43:18;4.50;;;1.50;;
76053;SDS011;64752;48.870;9.082;2023-03-29T16:45:44;5.10;;;1.30;;
76053;SDS011;64752;48.870;9.082;2023-03-29T16:48:14;3.67;;;1.65;;
76053;SDS011;64752;48.870;9.082;2023-03-29T16:50:43;4.63;;;1.73;;
76053;SDS011;64752;48.870;9.082;2023-03-29T16:53:15;3.28;;;1.60;;
76053;SDS011;64752;48.870;9.082;2023-03-29T16:55:43;6.95;;;1.45;;
76053;SDS011;64752;48.870;9.082;2023-03-29T16:58:10;4.97;;;1.50;;
76053;SDS011;64752;48.870;9.082;2023-03-29T17:00:36;11.00;;;2.08;;
76053;SDS011;64752;48.870;9.082;2023-03-29T17:03:05;7.13;;;2.80;;
76053;SDS011;64752;48.870;9.082;2023-03-29T17:05:31;8.00;;;2.55;;
76053;SDS011;64752;48.870;9.082;2023-03-29T17:08:01;4.95;;;2.40;;
76053;SDS011;64752;48.870;9.082;2023-03-29T17:10:27;7.85;;;2.83;;
76053;SDS011;64752;48.870;9.082;2023-03-29T17:12:52;8.20;;;2.00;;
76053;SDS011;64752;48.870;9.082;2023-03-29T17:15:18;6.70;;;2.60;;
76053;SDS011;64752;48.870;9.082;2023-03-29T17:17:43;8.70;;;2.50;;
76053;SDS011;64752;48.870;9.082;2023-03-29T17:20:09;10.47;;;2.30;;
76053;SDS011;64752;48.870;9.082;2023-03-29T17:22:40;8.40;;;3.33;;
76053;SDS011;64752;48.870;9.082;2023-03-29T17:25:06;8.00;;;3.33;;
76053;SDS011;64752;48.870;9.082;2023-03-29T17:27:33;6.75;;;3.40;;